sensor_id;sensor_type;location;lat;lon;timestamp;P1;durP1;ratioP1;P2;durP2;ratioP2
52838;SDS011;39219;53.678;9.856;2022-12-18T00:01:18;33.53;;;15.60;;
52838;SDS011;39219;53.678;9.856;2022-12-18T00:03:46;35.63;;;16.30;;
52838;SDS011;39219;53.678;9.856;2022-12-18T00:06:14;34.25;;;16.35;;
52838;SDS011;39219;53.678;9.856;2022-12-18T00:08:41;35.75;;;16.10;;
52838;SDS011;39219;53.678;9.856;2022-12-18T00:11:11;33.42;;;15.10;;
52838;SDS011;39219;53.678;9.856;2022-12-18T00:13:39;34.35;;;15.55;;
52838;SDS011;39219;53.678;9.856;2022-12-18T00:16:06;31.55;;;14.88;;
52838;SDS011;39219;53.678;9.856;2022-12-18T00:18:33;32.30;;;15.90;;
52838;SDS011;39219;53.678;9.856;2022-12-18T00:21:01;31.33;;;14.82;;
52838;SDS011;39219;53.678;9.856;2022-12-18T00:23:29;35.28;;;15.27;;
52838;SDS011;39219;53.678;9.856;2022-12-18T00:25:58;29.63;;;13.77;;
52838;SDS011;39219;53.678;9.856;2022-12-18T00:28:26;30.50;;;14.43;;
52838;SDS011;39219;53.678;9.856;2022-12-18T00:30:59;31.85;;;13.82;;
52838;SDS011;39219;53.678;9.856;2022-12-18T00:33:26;36.47;;;15.38;;
52838;SDS011;39219;53.678;9.856;2022-12-18T00:35:53;34.95;;;16.30;;
52838;SDS011;39219;53.678;9.856;2022-12-18T00:38:19;34.45;;;14.88;;
52838;SDS011;39219;53.678;9.856;2022-12-18T00:40:46;32.05;;;15.05;;
52838;SDS011;39219;53.678;9.856;2022-12-18T00:43:12;31.00;;;15.20;;
52838;SDS011;39219;53.678;9.856;2022-12-18T00:45:39;37.83;;;14.90;;
52838;SDS011;39219;53.678;9.856;2022-12-18T00:48:06;32.22;;;15.15;;
52838;SDS011;39219;53.678;9.856;2022-12-18T00:50:32;39.20;;;15.32;;
52838;SDS011;39219;53.678;9.856;2022-12-18T00:52:59;33.55;;;14.82;;
52838;SDS011;39219;53.678;9.856;2022-12-18T00:55:25;32.65;;;15.02;;
52838;SDS011;39219;53.678;9.856;2022-12-18T00:57:51;35.53;;;15.18;;
52838;SDS011;39219;53.678;9.856;2022-12-18T01:00:18;36.20;;;15.18;;
52838;SDS011;39219;53.678;9.856;2022-12-18T01:02:46;33.92;;;15.70;;
52838;SDS011;39219;53.678;9.856;2022-12-18T01:05:13;34.33;;;14.85;;
52838;SDS011;39219;53.678;9.856;2022-12-18T01:07:40;31.15;;;14.57;;
52838;SDS011;39219;53.678;9.856;2022-12-18T01:10:07;29.70;;;14.82;;
52838;SDS011;39219;53.678;9.856;2022-12-18T01:12:35;34.00;;;14.63;;
52838;SDS011;39219;53.678;9.856;2022-12-18T01:15:02;33.20;;;15.05;;
52838;SDS011;39219;53.678;9.856;2022-12-18T01:17:29;32.58;;;15.27;;
52838;SDS011;39219;53.678;9.856;2022-12-18T01:19:57;32.40;;;14.50;;
52838;SDS011;39219;53.678;9.856;2022-12-18T01:22:24;30.30;;;14.30;;
52838;SDS011;39219;53.678;9.856;2022-12-18T01:24:50;32.88;;;14.30;;
52838;SDS011;39219;53.678;9.856;2022-12-18T01:27:17;34.75;;;14.80;;
52838;SDS011;39219;53.678;9.856;2022-12-18T01:29:43;33.80;;;14.07;;
52838;SDS011;39219;53.678;9.856;2022-12-18T01:32:09;33.45;;;14.13;;
52838;SDS011;39219;53.678;9.856;2022-12-18T01:34:36;29.08;;;13.75;;
52838;SDS011;39219;53.678;9.856;2022-12-18T01:37:04;33.33;;;14.40;;
52838;SDS011;39219;53.678;9.856;2022-12-18T01:39:31;31.08;;;14.43;;
52838;SDS011;39219;53.678;9.856;2022-12-18T01:41:58;32.38;;;14.02;;
52838;SDS011;39219;53.678;9.856;2022-12-18T01:47:28;30.88;;;14.30;;
52838;SDS011;39219;53.678;9.856;2022-12-18T01:49:58;27.05;;;12.77;;
52838;SDS011;39219;53.678;9.856;2022-12-18T01:52:30;31.40;;;13.80;;
52838;SDS011;39219;53.678;9.856;2022-12-18T01:54:58;31.90;;;14.18;;
52838;SDS011;39219;53.678;9.856;2022-12-18T01:57:26;29.83;;;13.32;;
52838;SDS011;39219;53.678;9.856;2022-12-18T01:59:55;32.85;;;13.95;;
52838;SDS011;39219;53.678;9.856;2022-12-18T02:02:25;32.38;;;14.43;;
52838;SDS011;39219;53.678;9.856;2022-12-18T02:04:53;27.67;;;13.35;;
52838;SDS011;39219;53.678;9.856;2022-12-18T02:07:21;31.95;;;13.85;;
52838;SDS011;39219;53.678;9.856;2022-12-18T02:09:57;34.05;;;14.23;;
52838;SDS011;39219;53.678;9.856;2022-12-18T02:12:27;28.17;;;12.93;;
52838;SDS011;39219;53.678;9.856;2022-12-18T02:15:02;27.27;;;12.48;;
52838;SDS011;39219;53.678;9.856;2022-12-18T02:17:36;28.15;;;13.15;;
52838;SDS011;39219;53.678;9.856;2022-12-18T02:20:10;40.53;;;13.65;;
52838;SDS011;39219;53.678;9.856;2022-12-18T02:22:42;34.20;;;14.15;;
52838;SDS011;39219;53.678;9.856;2022-12-18T02:25:24;30.23;;;13.10;;
52838;SDS011;39219;53.678;9.856;2022-12-18T02:28:00;26.33;;;12.02;;
52838;SDS011;39219;53.678;9.856;2022-12-18T02:30:31;30.83;;;13.60;;
52838;SDS011;39219;53.678;9.856;2022-12-18T02:32:59;30.13;;;12.48;;
52838;SDS011;39219;53.678;9.856;2022-12-18T02:35:29;28.85;;;12.40;;
52838;SDS011;39219;53.678;9.856;2022-12-18T02:37:57;30.25;;;13.40;;
52838;SDS011;39219;53.678;9.856;2022-12-18T02:40:24;25.48;;;12.32;;
52838;SDS011;39219;53.678;9.856;2022-12-18T02:42:53;29.20;;;12.85;;
52838;SDS011;39219;53.678;9.856;2022-12-18T02:45:21;28.77;;;13.18;;
52838;SDS011;39219;53.678;9.856;2022-12-18T02:47:48;30.42;;;13.55;;
52838;SDS011;39219;53.678;9.856;2022-12-18T02:50:16;31.90;;;14.20;;
52838;SDS011;39219;53.678;9.856;2022-12-18T02:52:51;33.40;;;12.70;;
52838;SDS011;39219;53.678;9.856;2022-12-18T02:55:27;29.23;;;12.82;;
52838;SDS011;39219;53.678;9.856;2022-12-18T02:58:01;27.85;;;13.10;;
52838;SDS011;39219;53.678;9.856;2022-12-18T03:00:33;28.90;;;13.40;;
52838;SDS011;39219;53.678;9.856;2022-12-18T03:03:05;30.20;;;13.25;;
52838;SDS011;39219;53.678;9.856;2022-12-18T03:05:37;27.67;;;12.65;;
52838;SDS011;39219;53.678;9.856;2022-12-18T03:08:07;30.98;;;12.27;;
52838;SDS011;39219;53.678;9.856;2022-12-18T03:10:38;32.40;;;12.68;;
52838;SDS011;39219;53.678;9.856;2022-12-18T03:13:11;28.02;;;13.10;;
52838;SDS011;39219;53.678;9.856;2022-12-18T03:15:42;28.30;;;12.07;;
52838;SDS011;39219;53.678;9.856;2022-12-18T03:18:12;28.25;;;12.35;;
52838;SDS011;39219;53.678;9.856;2022-12-18T03:20:42;29.40;;;12.85;;
52838;SDS011;39219;53.678;9.856;2022-12-18T03:23:13;28.83;;;12.70;;
52838;SDS011;39219;53.678;9.856;2022-12-18T03:25:42;29.73;;;12.50;;
52838;SDS011;39219;53.678;9.856;2022-12-18T03:28:12;26.00;;;11.93;;
52838;SDS011;39219;53.678;9.856;2022-12-18T03:30:43;29.80;;;11.80;;
52838;SDS011;39219;53.678;9.856;2022-12-18T03:33:12;26.30;;;12.10;;
52838;SDS011;39219;53.678;9.856;2022-12-18T03:35:44;29.38;;;12.32;;
52838;SDS011;39219;53.678;9.856;2022-12-18T03:38:11;28.45;;;11.60;;
52838;SDS011;39219;53.678;9.856;2022-12-18T03:40:41;28.33;;;12.10;;
52838;SDS011;39219;53.678;9.856;2022-12-18T03:43:16;26.98;;;12.38;;
52838;SDS011;39219;53.678;9.856;2022-12-18T03:45:50;27.00;;;12.18;;
52838;SDS011;39219;53.678;9.856;2022-12-18T03:48:21;29.20;;;12.52;;
52838;SDS011;39219;53.678;9.856;2022-12-18T03:50:56;30.08;;;12.63;;
52838;SDS011;39219;53.678;9.856;2022-12-18T03:53:25;27.40;;;12.10;;
52838;SDS011;39219;53.678;9.856;2022-12-18T03:55:59;29.45;;;12.55;;
52838;SDS011;39219;53.678;9.856;2022-12-18T03:58:28;29.30;;;12.45;;
52838;SDS011;39219;53.678;9.856;2022-12-18T04:00:59;28.30;;;12.18;;
52838;SDS011;39219;53.678;9.856;2022-12-18T04:03:28;26.60;;;12.00;;
52838;SDS011;39219;53.678;9.856;2022-12-18T04:05:57;24.50;;;11.70;;
52838;SDS011;39219;53.678;9.856;2022-12-18T04:08:26;25.83;;;12.00;;
52838;SDS011;39219;53.678;9.856;2022-12-18T04:10:53;27.88;;;11.93;;
52838;SDS011;39219;53.678;9.856;2022-12-18T04:13:23;28.95;;;12.68;;
52838;SDS011;39219;53.678;9.856;2022-12-18T04:15:50;27.92;;;12.80;;
52838;SDS011;39219;53.678;9.856;2022-12-18T04:18:18;26.92;;;11.57;;
52838;SDS011;39219;53.678;9.856;2022-12-18T04:20:44;27.52;;;12.40;;
52838;SDS011;39219;53.678;9.856;2022-12-18T04:23:11;27.77;;;12.40;;
52838;SDS011;39219;53.678;9.856;2022-12-18T04:25:37;28.13;;;12.68;;
52838;SDS011;39219;53.678;9.856;2022-12-18T04:28:04;28.95;;;12.07;;
52838;SDS011;39219;53.678;9.856;2022-12-18T04:30:30;27.65;;;11.40;;
52838;SDS011;39219;53.678;9.856;2022-12-18T04:32:57;28.65;;;11.90;;
52838;SDS011;39219;53.678;9.856;2022-12-18T04:35:25;27.83;;;12.25;;
52838;SDS011;39219;53.678;9.856;2022-12-18T04:37:51;27.48;;;11.55;;
52838;SDS011;39219;53.678;9.856;2022-12-18T04:40:17;25.73;;;11.73;;
52838;SDS011;39219;53.678;9.856;2022-12-18T04:42:44;25.13;;;11.20;;
52838;SDS011;39219;53.678;9.856;2022-12-18T04:45:10;31.15;;;12.07;;
52838;SDS011;39219;53.678;9.856;2022-12-18T04:47:37;27.38;;;11.50;;
52838;SDS011;39219;53.678;9.856;2022-12-18T04:50:04;25.55;;;11.45;;
52838;SDS011;39219;53.678;9.856;2022-12-18T04:52:32;29.55;;;12.82;;
52838;SDS011;39219;53.678;9.856;2022-12-18T04:54:59;24.02;;;11.05;;
52838;SDS011;39219;53.678;9.856;2022-12-18T04:57:25;27.20;;;11.38;;
52838;SDS011;39219;53.678;9.856;2022-12-18T04:59:52;23.75;;;11.00;;
52838;SDS011;39219;53.678;9.856;2022-12-18T05:02:18;25.60;;;11.60;;
52838;SDS011;39219;53.678;9.856;2022-12-18T05:04:44;22.42;;;10.65;;
52838;SDS011;39219;53.678;9.856;2022-12-18T05:07:11;22.55;;;10.52;;
52838;SDS011;39219;53.678;9.856;2022-12-18T05:09:39;25.65;;;12.10;;
52838;SDS011;39219;53.678;9.856;2022-12-18T05:12:05;24.88;;;11.25;;
52838;SDS011;39219;53.678;9.856;2022-12-18T05:14:32;24.13;;;10.73;;
52838;SDS011;39219;53.678;9.856;2022-12-18T05:16:58;26.17;;;10.95;;
52838;SDS011;39219;53.678;9.856;2022-12-18T05:19:25;26.85;;;11.63;;
52838;SDS011;39219;53.678;9.856;2022-12-18T05:21:51;24.92;;;10.60;;
52838;SDS011;39219;53.678;9.856;2022-12-18T05:24:17;25.63;;;10.65;;
52838;SDS011;39219;53.678;9.856;2022-12-18T05:26:45;22.67;;;10.15;;
52838;SDS011;39219;53.678;9.856;2022-12-18T05:29:12;22.77;;;10.90;;
52838;SDS011;39219;53.678;9.856;2022-12-18T05:31:38;24.17;;;11.18;;
52838;SDS011;39219;53.678;9.856;2022-12-18T05:34:05;21.33;;;10.48;;
52838;SDS011;39219;53.678;9.856;2022-12-18T05:36:31;25.90;;;11.18;;
52838;SDS011;39219;53.678;9.856;2022-12-18T05:38:58;23.48;;;10.93;;
52838;SDS011;39219;53.678;9.856;2022-12-18T05:41:25;24.67;;;11.27;;
52838;SDS011;39219;53.678;9.856;2022-12-18T05:43:53;28.23;;;11.65;;
52838;SDS011;39219;53.678;9.856;2022-12-18T05:46:19;21.50;;;10.23;;
52838;SDS011;39219;53.678;9.856;2022-12-18T05:48:46;25.30;;;11.18;;
52838;SDS011;39219;53.678;9.856;2022-12-18T05:51:14;25.73;;;11.45;;
52838;SDS011;39219;53.678;9.856;2022-12-18T05:53:41;24.88;;;10.73;;
52838;SDS011;39219;53.678;9.856;2022-12-18T05:56:09;22.70;;;10.80;;
52838;SDS011;39219;53.678;9.856;2022-12-18T05:58:38;27.02;;;11.30;;
52838;SDS011;39219;53.678;9.856;2022-12-18T06:01:07;26.63;;;11.45;;
52838;SDS011;39219;53.678;9.856;2022-12-18T06:03:35;24.55;;;11.07;;
52838;SDS011;39219;53.678;9.856;2022-12-18T06:06:02;26.52;;;11.10;;
52838;SDS011;39219;53.678;9.856;2022-12-18T06:08:28;28.52;;;11.85;;
52838;SDS011;39219;53.678;9.856;2022-12-18T06:10:55;24.63;;;11.85;;
52838;SDS011;39219;53.678;9.856;2022-12-18T06:13:22;26.38;;;12.07;;
52838;SDS011;39219;53.678;9.856;2022-12-18T06:15:48;27.77;;;12.30;;
52838;SDS011;39219;53.678;9.856;2022-12-18T06:18:16;27.30;;;12.05;;
52838;SDS011;39219;53.678;9.856;2022-12-18T06:20:43;28.52;;;13.05;;
52838;SDS011;39219;53.678;9.856;2022-12-18T06:23:09;26.63;;;12.82;;
52838;SDS011;39219;53.678;9.856;2022-12-18T06:25:37;28.02;;;12.27;;
52838;SDS011;39219;53.678;9.856;2022-12-18T06:28:04;29.50;;;13.38;;
52838;SDS011;39219;53.678;9.856;2022-12-18T06:30:30;34.17;;;12.70;;
52838;SDS011;39219;53.678;9.856;2022-12-18T06:32:57;29.38;;;14.13;;
52838;SDS011;39219;53.678;9.856;2022-12-18T06:35:24;26.67;;;13.18;;
52838;SDS011;39219;53.678;9.856;2022-12-18T06:37:51;27.25;;;12.43;;
52838;SDS011;39219;53.678;9.856;2022-12-18T06:40:17;28.80;;;12.85;;
52838;SDS011;39219;53.678;9.856;2022-12-18T06:42:44;31.58;;;13.25;;
52838;SDS011;39219;53.678;9.856;2022-12-18T06:45:11;27.40;;;12.20;;
52838;SDS011;39219;53.678;9.856;2022-12-18T06:47:40;30.45;;;12.95;;
52838;SDS011;39219;53.678;9.856;2022-12-18T06:50:06;27.80;;;13.00;;
52838;SDS011;39219;53.678;9.856;2022-12-18T06:52:34;27.92;;;12.85;;
52838;SDS011;39219;53.678;9.856;2022-12-18T06:55:01;27.38;;;12.45;;
52838;SDS011;39219;53.678;9.856;2022-12-18T06:57:29;28.17;;;12.93;;
52838;SDS011;39219;53.678;9.856;2022-12-18T06:59:55;26.65;;;12.90;;
52838;SDS011;39219;53.678;9.856;2022-12-18T07:02:22;28.20;;;13.00;;
52838;SDS011;39219;53.678;9.856;2022-12-18T07:04:48;27.23;;;12.50;;
52838;SDS011;39219;53.678;9.856;2022-12-18T07:07:14;30.08;;;13.43;;
52838;SDS011;39219;53.678;9.856;2022-12-18T07:09:42;29.23;;;13.02;;
52838;SDS011;39219;53.678;9.856;2022-12-18T07:12:09;26.98;;;12.95;;
52838;SDS011;39219;53.678;9.856;2022-12-18T07:14:35;32.42;;;13.75;;
52838;SDS011;39219;53.678;9.856;2022-12-18T07:17:02;27.58;;;13.45;;
52838;SDS011;39219;53.678;9.856;2022-12-18T07:19:28;28.13;;;13.52;;
52838;SDS011;39219;53.678;9.856;2022-12-18T07:21:55;29.63;;;13.13;;
52838;SDS011;39219;53.678;9.856;2022-12-18T07:24:22;28.33;;;13.68;;
52838;SDS011;39219;53.678;9.856;2022-12-18T07:26:49;29.67;;;12.50;;
52838;SDS011;39219;53.678;9.856;2022-12-18T07:29:16;29.17;;;13.88;;
52838;SDS011;39219;53.678;9.856;2022-12-18T07:31:42;30.02;;;14.00;;
52838;SDS011;39219;53.678;9.856;2022-12-18T07:34:09;30.77;;;14.52;;
52838;SDS011;39219;53.678;9.856;2022-12-18T07:36:36;29.67;;;13.60;;
52838;SDS011;39219;53.678;9.856;2022-12-18T07:39:03;28.80;;;12.75;;
52838;SDS011;39219;53.678;9.856;2022-12-18T07:41:30;27.35;;;12.57;;
52838;SDS011;39219;53.678;9.856;2022-12-18T07:43:58;27.42;;;12.65;;
52838;SDS011;39219;53.678;9.856;2022-12-18T07:46:24;26.50;;;12.57;;
52838;SDS011;39219;53.678;9.856;2022-12-18T07:48:51;25.90;;;11.93;;
52838;SDS011;39219;53.678;9.856;2022-12-18T07:51:18;26.52;;;12.80;;
52838;SDS011;39219;53.678;9.856;2022-12-18T07:53:45;26.95;;;13.10;;
52838;SDS011;39219;53.678;9.856;2022-12-18T07:56:12;24.85;;;12.23;;
52838;SDS011;39219;53.678;9.856;2022-12-18T07:58:39;28.55;;;12.48;;
52838;SDS011;39219;53.678;9.856;2022-12-18T08:01:07;26.73;;;12.65;;
52838;SDS011;39219;53.678;9.856;2022-12-18T08:03:34;24.88;;;12.02;;
52838;SDS011;39219;53.678;9.856;2022-12-18T08:06:01;26.17;;;12.10;;
52838;SDS011;39219;53.678;9.856;2022-12-18T08:08:29;29.38;;;12.23;;
52838;SDS011;39219;53.678;9.856;2022-12-18T08:10:56;26.42;;;12.43;;
52838;SDS011;39219;53.678;9.856;2022-12-18T08:13:23;24.38;;;12.45;;
52838;SDS011;39219;53.678;9.856;2022-12-18T08:15:55;21.05;;;10.52;;
52838;SDS011;39219;53.678;9.856;2022-12-18T08:18:24;24.35;;;11.10;;
52838;SDS011;39219;53.678;9.856;2022-12-18T08:20:50;23.40;;;10.75;;
52838;SDS011;39219;53.678;9.856;2022-12-18T08:23:17;22.77;;;10.63;;
52838;SDS011;39219;53.678;9.856;2022-12-18T08:25:43;21.38;;;10.43;;
52838;SDS011;39219;53.678;9.856;2022-12-18T08:28:10;23.05;;;11.15;;
52838;SDS011;39219;53.678;9.856;2022-12-18T08:30:36;24.88;;;11.23;;
52838;SDS011;39219;53.678;9.856;2022-12-18T08:33:03;23.10;;;11.05;;
52838;SDS011;39219;53.678;9.856;2022-12-18T08:35:34;22.83;;;11.30;;
52838;SDS011;39219;53.678;9.856;2022-12-18T08:38:01;24.35;;;10.93;;
52838;SDS011;39219;53.678;9.856;2022-12-18T08:40:27;21.42;;;11.30;;
52838;SDS011;39219;53.678;9.856;2022-12-18T08:42:54;23.55;;;10.63;;
52838;SDS011;39219;53.678;9.856;2022-12-18T08:45:38;22.30;;;10.70;;
52838;SDS011;39219;53.678;9.856;2022-12-18T08:48:04;24.65;;;11.95;;
52838;SDS011;39219;53.678;9.856;2022-12-18T08:50:32;22.05;;;10.52;;
52838;SDS011;39219;53.678;9.856;2022-12-18T08:52:59;25.33;;;11.30;;
52838;SDS011;39219;53.678;9.856;2022-12-18T08:55:26;23.70;;;10.80;;
52838;SDS011;39219;53.678;9.856;2022-12-18T08:57:52;25.17;;;10.93;;
52838;SDS011;39219;53.678;9.856;2022-12-18T09:00:19;20.23;;;11.07;;
52838;SDS011;39219;53.678;9.856;2022-12-18T09:02:46;25.60;;;11.25;;
52838;SDS011;39219;53.678;9.856;2022-12-18T09:05:12;21.30;;;10.65;;
52838;SDS011;39219;53.678;9.856;2022-12-18T09:07:40;21.73;;;10.63;;
52838;SDS011;39219;53.678;9.856;2022-12-18T09:10:07;21.55;;;10.63;;
52838;SDS011;39219;53.678;9.856;2022-12-18T09:12:33;19.98;;;9.48;;
52838;SDS011;39219;53.678;9.856;2022-12-18T09:15:00;18.95;;;9.63;;
52838;SDS011;39219;53.678;9.856;2022-12-18T09:17:26;21.83;;;9.80;;
52838;SDS011;39219;53.678;9.856;2022-12-18T09:19:53;18.60;;;9.45;;
52838;SDS011;39219;53.678;9.856;2022-12-18T09:22:19;18.45;;;9.45;;
52838;SDS011;39219;53.678;9.856;2022-12-18T09:24:47;19.42;;;9.85;;
52838;SDS011;39219;53.678;9.856;2022-12-18T09:27:14;19.20;;;9.52;;
52838;SDS011;39219;53.678;9.856;2022-12-18T09:29:41;20.33;;;9.48;;
52838;SDS011;39219;53.678;9.856;2022-12-18T09:32:07;21.00;;;9.63;;
52838;SDS011;39219;53.678;9.856;2022-12-18T09:34:34;19.58;;;9.25;;
52838;SDS011;39219;53.678;9.856;2022-12-18T09:37:00;20.65;;;10.23;;
52838;SDS011;39219;53.678;9.856;2022-12-18T09:39:27;19.02;;;9.30;;
52838;SDS011;39219;53.678;9.856;2022-12-18T09:41:55;18.98;;;9.68;;
52838;SDS011;39219;53.678;9.856;2022-12-18T09:44:24;19.05;;;9.50;;
52838;SDS011;39219;53.678;9.856;2022-12-18T09:47:00;21.40;;;9.80;;
52838;SDS011;39219;53.678;9.856;2022-12-18T09:49:33;18.65;;;9.57;;
52838;SDS011;39219;53.678;9.856;2022-12-18T09:52:03;21.60;;;10.10;;
52838;SDS011;39219;53.678;9.856;2022-12-18T09:54:37;20.35;;;9.50;;
52838;SDS011;39219;53.678;9.856;2022-12-18T09:57:09;24.10;;;10.75;;
52838;SDS011;39219;53.678;9.856;2022-12-18T09:59:39;20.05;;;9.70;;
52838;SDS011;39219;53.678;9.856;2022-12-18T10:02:12;19.50;;;9.18;;
52838;SDS011;39219;53.678;9.856;2022-12-18T10:04:40;18.98;;;9.80;;
52838;SDS011;39219;53.678;9.856;2022-12-18T10:07:08;21.20;;;9.55;;
52838;SDS011;39219;53.678;9.856;2022-12-18T10:09:42;20.80;;;10.43;;
52838;SDS011;39219;53.678;9.856;2022-12-18T10:12:17;19.48;;;9.23;;
52838;SDS011;39219;53.678;9.856;2022-12-18T10:14:52;19.23;;;9.82;;
52838;SDS011;39219;53.678;9.856;2022-12-18T10:17:24;18.92;;;9.13;;
52838;SDS011;39219;53.678;9.856;2022-12-18T10:19:55;19.60;;;9.75;;
52838;SDS011;39219;53.678;9.856;2022-12-18T10:22:28;20.08;;;10.27;;
52838;SDS011;39219;53.678;9.856;2022-12-18T10:25:13;21.02;;;9.70;;
52838;SDS011;39219;53.678;9.856;2022-12-18T10:27:46;20.50;;;9.27;;
52838;SDS011;39219;53.678;9.856;2022-12-18T10:30:15;18.27;;;9.93;;
52838;SDS011;39219;53.678;9.856;2022-12-18T10:32:43;22.17;;;10.63;;
52838;SDS011;39219;53.678;9.856;2022-12-18T10:35:11;20.25;;;9.50;;
52838;SDS011;39219;53.678;9.856;2022-12-18T10:38:05;20.60;;;10.18;;
52838;SDS011;39219;53.678;9.856;2022-12-18T10:40:49;21.20;;;10.00;;
52838;SDS011;39219;53.678;9.856;2022-12-18T10:43:23;19.20;;;9.57;;
52838;SDS011;39219;53.678;9.856;2022-12-18T10:45:58;20.30;;;9.55;;
52838;SDS011;39219;53.678;9.856;2022-12-18T10:48:27;20.60;;;9.55;;
52838;SDS011;39219;53.678;9.856;2022-12-18T10:50:55;21.20;;;9.98;;
52838;SDS011;39219;53.678;9.856;2022-12-18T10:53:23;19.13;;;9.57;;
52838;SDS011;39219;53.678;9.856;2022-12-18T10:55:52;19.20;;;9.18;;
52838;SDS011;39219;53.678;9.856;2022-12-18T10:58:23;16.58;;;8.93;;
52838;SDS011;39219;53.678;9.856;2022-12-18T11:01:01;17.65;;;8.77;;
52838;SDS011;39219;53.678;9.856;2022-12-18T11:03:31;17.90;;;9.10;;
52838;SDS011;39219;53.678;9.856;2022-12-18T11:06:07;17.23;;;8.88;;
52838;SDS011;39219;53.678;9.856;2022-12-18T11:08:36;17.20;;;8.52;;
52838;SDS011;39219;53.678;9.856;2022-12-18T11:11:03;18.98;;;9.30;;
52838;SDS011;39219;53.678;9.856;2022-12-18T11:13:35;21.23;;;8.88;;
52838;SDS011;39219;53.678;9.856;2022-12-18T11:16:01;19.65;;;9.60;;
52838;SDS011;39219;53.678;9.856;2022-12-18T11:18:28;16.92;;;8.70;;
52838;SDS011;39219;53.678;9.856;2022-12-18T11:20:57;16.33;;;8.63;;
52838;SDS011;39219;53.678;9.856;2022-12-18T11:23:27;16.92;;;8.85;;
52838;SDS011;39219;53.678;9.856;2022-12-18T11:25:55;16.75;;;8.70;;
52838;SDS011;39219;53.678;9.856;2022-12-18T11:28:27;16.02;;;8.55;;
52838;SDS011;39219;53.678;9.856;2022-12-18T11:31:18;18.13;;;8.80;;
52838;SDS011;39219;53.678;9.856;2022-12-18T11:33:49;17.08;;;8.23;;
52838;SDS011;39219;53.678;9.856;2022-12-18T11:36:23;16.88;;;8.43;;
52838;SDS011;39219;53.678;9.856;2022-12-18T11:38:52;21.63;;;8.85;;
52838;SDS011;39219;53.678;9.856;2022-12-18T11:41:24;15.95;;;8.00;;
52838;SDS011;39219;53.678;9.856;2022-12-18T11:44:08;19.98;;;9.55;;
52838;SDS011;39219;53.678;9.856;2022-12-18T11:46:43;20.23;;;8.38;;
52838;SDS011;39219;53.678;9.856;2022-12-18T11:49:14;17.10;;;8.30;;
52838;SDS011;39219;53.678;9.856;2022-12-18T11:51:47;18.80;;;8.93;;
52838;SDS011;39219;53.678;9.856;2022-12-18T11:54:17;19.33;;;8.77;;
52838;SDS011;39219;53.678;9.856;2022-12-18T11:56:46;17.15;;;8.68;;
52838;SDS011;39219;53.678;9.856;2022-12-18T11:59:16;16.27;;;8.25;;
52838;SDS011;39219;53.678;9.856;2022-12-18T12:01:58;19.55;;;8.77;;
52838;SDS011;39219;53.678;9.856;2022-12-18T12:04:41;16.60;;;8.73;;
52838;SDS011;39219;53.678;9.856;2022-12-18T12:07:29;15.98;;;8.13;;
52838;SDS011;39219;53.678;9.856;2022-12-18T12:10:13;18.63;;;8.40;;
52838;SDS011;39219;53.678;9.856;2022-12-18T12:12:52;15.80;;;8.57;;
52838;SDS011;39219;53.678;9.856;2022-12-18T12:15:33;17.88;;;8.63;;
52838;SDS011;39219;53.678;9.856;2022-12-18T12:18:08;18.88;;;8.95;;
52838;SDS011;39219;53.678;9.856;2022-12-18T12:20:49;16.25;;;8.13;;
52838;SDS011;39219;53.678;9.856;2022-12-18T12:23:23;17.05;;;9.07;;
52838;SDS011;39219;53.678;9.856;2022-12-18T12:26:01;18.60;;;8.80;;
52838;SDS011;39219;53.678;9.856;2022-12-18T12:28:37;16.50;;;8.57;;
52838;SDS011;39219;53.678;9.856;2022-12-18T12:31:19;16.40;;;8.50;;
52838;SDS011;39219;53.678;9.856;2022-12-18T12:33:56;17.48;;;8.38;;
52838;SDS011;39219;53.678;9.856;2022-12-18T12:36:32;16.55;;;8.23;;
52838;SDS011;39219;53.678;9.856;2022-12-18T12:39:07;16.80;;;8.23;;
52838;SDS011;39219;53.678;9.856;2022-12-18T12:41:40;18.20;;;9.15;;
52838;SDS011;39219;53.678;9.856;2022-12-18T12:44:27;20.63;;;8.88;;
52838;SDS011;39219;53.678;9.856;2022-12-18T12:46:59;20.67;;;9.70;;
52838;SDS011;39219;53.678;9.856;2022-12-18T12:49:32;21.73;;;9.63;;
52838;SDS011;39219;53.678;9.856;2022-12-18T12:52:00;22.73;;;9.85;;
52838;SDS011;39219;53.678;9.856;2022-12-18T12:54:31;18.48;;;9.55;;
52838;SDS011;39219;53.678;9.856;2022-12-18T12:57:02;18.60;;;9.73;;
52838;SDS011;39219;53.678;9.856;2022-12-18T12:59:36;19.83;;;10.18;;
52838;SDS011;39219;53.678;9.856;2022-12-18T13:02:14;20.15;;;9.65;;
52838;SDS011;39219;53.678;9.856;2022-12-18T13:04:48;20.77;;;9.95;;
52838;SDS011;39219;53.678;9.856;2022-12-18T13:07:19;22.40;;;10.00;;
52838;SDS011;39219;53.678;9.856;2022-12-18T13:12:52;20.08;;;10.20;;
52838;SDS011;39219;53.678;9.856;2022-12-18T13:15:22;21.80;;;9.82;;
52838;SDS011;39219;53.678;9.856;2022-12-18T13:18:02;22.65;;;9.98;;
52838;SDS011;39219;53.678;9.856;2022-12-18T13:20:33;18.85;;;9.23;;
52838;SDS011;39219;53.678;9.856;2022-12-18T13:23:01;20.27;;;9.60;;
52838;SDS011;39219;53.678;9.856;2022-12-18T13:25:46;21.65;;;9.63;;
52838;SDS011;39219;53.678;9.856;2022-12-18T13:28:12;21.65;;;9.25;;
52838;SDS011;39219;53.678;9.856;2022-12-18T13:36:14;21.58;;;9.65;;
52838;SDS011;39219;53.678;9.856;2022-12-18T13:39:11;21.92;;;9.82;;
52838;SDS011;39219;53.678;9.856;2022-12-18T13:45:41;21.88;;;9.57;;
52838;SDS011;39219;53.678;9.856;2022-12-18T13:48:23;20.85;;;9.38;;
52838;SDS011;39219;53.678;9.856;2022-12-18T13:50:53;21.00;;;9.02;;
52838;SDS011;39219;53.678;9.856;2022-12-18T13:53:26;22.55;;;9.68;;
52838;SDS011;39219;53.678;9.856;2022-12-18T13:55:55;22.15;;;9.63;;
52838;SDS011;39219;53.678;9.856;2022-12-18T13:58:22;21.35;;;9.50;;
52838;SDS011;39219;53.678;9.856;2022-12-18T14:00:49;21.60;;;10.23;;
52838;SDS011;39219;53.678;9.856;2022-12-18T14:03:17;20.48;;;9.68;;
52838;SDS011;39219;53.678;9.856;2022-12-18T14:05:45;22.13;;;10.15;;
52838;SDS011;39219;53.678;9.856;2022-12-18T14:08:18;24.90;;;10.77;;
52838;SDS011;39219;53.678;9.856;2022-12-18T14:10:46;23.00;;;10.65;;
52838;SDS011;39219;53.678;9.856;2022-12-18T14:13:15;24.90;;;10.93;;
52838;SDS011;39219;53.678;9.856;2022-12-18T14:15:46;22.13;;;10.00;;
52838;SDS011;39219;53.678;9.856;2022-12-18T14:18:17;24.85;;;10.32;;
52838;SDS011;39219;53.678;9.856;2022-12-18T14:20:48;26.38;;;11.05;;
52838;SDS011;39219;53.678;9.856;2022-12-18T14:23:29;28.20;;;11.57;;
52838;SDS011;39219;53.678;9.856;2022-12-18T14:25:58;28.35;;;11.43;;
52838;SDS011;39219;53.678;9.856;2022-12-18T14:28:26;23.15;;;10.50;;
52838;SDS011;39219;53.678;9.856;2022-12-18T14:30:52;25.95;;;12.15;;
52838;SDS011;39219;53.678;9.856;2022-12-18T14:33:21;27.92;;;11.48;;
52838;SDS011;39219;53.678;9.856;2022-12-18T14:35:53;28.52;;;12.20;;
52838;SDS011;39219;53.678;9.856;2022-12-18T14:38:23;31.73;;;11.57;;
52838;SDS011;39219;53.678;9.856;2022-12-18T14:40:52;29.38;;;12.10;;
52838;SDS011;39219;53.678;9.856;2022-12-18T14:43:22;31.00;;;11.65;;
52838;SDS011;39219;53.678;9.856;2022-12-18T14:45:49;31.20;;;11.90;;
52838;SDS011;39219;53.678;9.856;2022-12-18T14:48:17;27.65;;;11.93;;
52838;SDS011;39219;53.678;9.856;2022-12-18T14:50:45;27.83;;;12.13;;
52838;SDS011;39219;53.678;9.856;2022-12-18T14:53:22;30.48;;;11.70;;
52838;SDS011;39219;53.678;9.856;2022-12-18T14:55:53;32.67;;;12.35;;